createdAt,value
2023-05-19T00:01:29.546Z,102420.03
2023-05-19T00:03:58.979Z,102423.19
2023-05-19T00:06:31.611Z,102423.44
2023-05-19T00:09:04.738Z,102420.47
2023-05-19T00:11:31.942Z,102421.72
2023-05-19T00:14:00.367Z,102426.88
2023-05-19T00:16:29.616Z,102429.03
2023-05-19T00:19:00.270Z,102429.03
2023-05-19T00:21:28.666Z,102422.31
2023-05-19T00:23:58.506Z,102432.50
2023-05-19T00:26:28.302Z,102423.41
2023-05-19T00:28:55.835Z,102421.16
2023-05-19T00:31:27.437Z,102425.47
2023-05-19T00:33:55.760Z,102424.88
2023-05-19T00:36:26.104Z,102425.88
2023-05-19T00:38:53.044Z,102422.03
2023-05-19T00:41:23.102Z,102423.13
2023-05-19T00:43:53.685Z,102418.00
2023-05-19T00:46:20.726Z,102414.72
2023-05-19T00:48:49.867Z,102418.16
2023-05-19T00:51:20.362Z,102408.00
2023-05-19T00:53:52.144Z,102411.00
2023-05-19T00:56:21.008Z,102419.72
2023-05-19T00:58:51.102Z,102422.84
2023-05-19T01:01:21.843Z,102421.25
2023-05-19T01:03:49.389Z,102418.84
2023-05-19T01:06:19.147Z,102419.13
2023-05-19T01:08:46.562Z,102418.22
2023-05-19T01:11:15.976Z,102420.81
2023-05-19T01:13:43.502Z,102412.81
2023-05-19T01:16:30.793Z,102416.41
2023-05-19T01:19:04.751Z,102415.53
2023-05-19T01:21:56.216Z,102421.06
2023-05-19T01:24:54.797Z,102413.91
2023-05-19T01:28:12.949Z,102413.91
2023-05-19T01:30:39.804Z,102411.03
2023-05-19T01:33:15.984Z,102423.06
2023-05-19T01:35:44.217Z,102427.25
2023-05-19T01:38:15.580Z,102429.56
2023-05-19T01:40:47.605Z,102419.88
2023-05-19T01:43:22.616Z,102420.03
2023-05-19T01:45:51.044Z,102422.78
2023-05-19T01:48:23.233Z,102422.13
2023-05-19T01:50:50.635Z,102418.69
2023-05-19T01:53:23.204Z,102416.59
2023-05-19T01:55:54.311Z,102422.66
2023-05-19T01:58:47.920Z,102422.13
2023-05-19T02:01:52.433Z,102423.78
2023-05-19T02:04:43.815Z,102425.28
2023-05-19T02:07:42.647Z,102423.56
2023-05-19T02:10:19.651Z,102419.41
2023-05-19T02:12:47.826Z,102424.88
2023-05-19T02:15:26.722Z,102420.31
2023-05-19T02:17:55.978Z,102418.72
2023-05-19T02:20:25.098Z,102414.56
2023-05-19T02:22:54.308Z,102426.75
2023-05-19T02:25:21.682Z,102417.22
2023-05-19T02:27:49.169Z,102425.38
2023-05-19T02:30:16.341Z,102416.41
2023-05-19T02:32:46.835Z,102415.94
2023-05-19T02:35:14.239Z,102411.59
2023-05-19T02:37:46.039Z,102412.59
2023-05-19T02:40:13.080Z,102412.84
2023-05-19T02:42:39.980Z,102411.53
2023-05-19T02:45:10.668Z,102413.84
2023-05-19T02:47:43.062Z,102409.97
2023-05-19T02:50:12.509Z,102402.91
2023-05-19T02:52:39.496Z,102403.31
2023-05-19T02:55:16.910Z,102404.97
2023-05-19T02:57:43.977Z,102406.72
2023-05-19T03:00:11.671Z,102401.16
2023-05-19T03:02:39.638Z,102402.78
2023-05-19T03:05:08.198Z,102401.22
2023-05-19T03:07:37.588Z,102396.91
2023-05-19T03:10:09.664Z,102408.28
2023-05-19T03:12:36.566Z,102400.28
2023-05-19T03:15:03.829Z,102401.22
2023-05-19T03:17:34.371Z,102404.84
2023-05-19T03:20:01.781Z,102397.38
2023-05-19T03:22:33.789Z,102393.00
2023-05-19T03:25:05.774Z,102391.34
2023-05-19T03:27:34.711Z,102389.47
2023-05-19T03:30:02.700Z,102399.09
2023-05-19T03:32:32.805Z,102397.09
2023-05-19T03:34:59.924Z,102395.44
2023-05-19T03:37:26.818Z,102407.09
2023-05-19T03:39:55.839Z,102400.22
2023-05-19T03:42:25.517Z,102402.19
2023-05-19T03:44:52.453Z,102404.53
2023-05-19T03:47:21.458Z,102401.00
2023-05-19T03:49:48.716Z,102399.03
2023-05-19T03:52:15.765Z,102403.66
2023-05-19T03:54:43.181Z,102405.50
2023-05-19T03:57:11.180Z,102401.25
2023-05-19T03:59:41.481Z,102400.28
2023-05-19T04:02:13.001Z,102404.97
2023-05-19T04:04:42.260Z,102404.50
2023-05-19T04:07:09.141Z,102406.84
2023-05-19T04:09:37.702Z,102403.25
2023-05-19T04:12:04.967Z,102405.97
2023-05-19T04:14:34.358Z,102404.84
2023-05-19T04:17:01.263Z,102410.06
2023-05-19T04:19:28.425Z,102401.97
2023-05-19T04:21:57.790Z,102399.09
2023-05-19T04:24:24.724Z,102408.84
2023-05-19T04:26:54.119Z,102405.91
2023-05-19T04:29:24.310Z,102408.25
2023-05-19T04:31:51.243Z,102409.88
2023-05-19T04:34:19.940Z,102417.69
2023-05-19T04:36:47.996Z,102415.22
2023-05-19T04:39:19.982Z,102413.66
2023-05-19T04:41:48.954Z,102414.19
2023-05-19T04:44:18.130Z,102424.38
2023-05-19T04:46:47.749Z,102416.53
2023-05-19T04:49:14.707Z,102415.06
2023-05-19T04:51:46.051Z,102422.00
2023-05-19T04:54:12.982Z,102410.84
2023-05-19T04:56:43.622Z,102418.28
2023-05-19T04:59:12.873Z,102416.31
2023-05-19T05:01:40.873Z,102415.31
2023-05-19T05:04:07.985Z,102413.75
2023-05-19T05:06:42.320Z,102407.16
2023-05-19T05:09:10.451Z,102414.34
2023-05-19T05:11:37.777Z,102415.31
2023-05-19T05:14:05.053Z,102412.19
2023-05-19T05:16:32.780Z,102417.50
2023-05-19T05:19:03.051Z,102412.31
2023-05-19T05:21:31.809Z,102418.34
2023-05-19T05:23:59.348Z,102411.47
2023-05-19T05:26:31.657Z,102415.78
2023-05-19T05:29:00.756Z,102415.34
2023-05-19T05:31:27.658Z,102420.50
2023-05-19T05:33:59.441Z,102423.38
2023-05-19T05:36:31.651Z,102417.88
2023-05-19T05:38:59.553Z,102425.22
2023-05-19T05:41:27.352Z,102420.78
2023-05-19T05:43:54.285Z,102418.25
2023-05-19T05:46:24.192Z,102415.72
2023-05-19T05:48:55.984Z,102425.97
2023-05-19T05:51:28.507Z,102423.25
2023-05-19T05:53:56.193Z,102427.63
2023-05-19T05:56:23.556Z,102424.53
2023-05-19T05:58:52.533Z,102419.63
2023-05-19T06:01:20.960Z,102418.31
2023-05-19T06:03:48.033Z,102421.97
2023-05-19T06:06:17.450Z,102417.28
2023-05-19T06:08:47.830Z,102424.16
2023-05-19T06:11:14.828Z,102417.13
2023-05-19T06:13:41.722Z,102423.47
2023-05-19T06:16:11.148Z,102421.53
2023-05-19T06:18:38.118Z,102417.50
2023-05-19T06:21:10.096Z,102418.63
2023-05-19T06:23:37.288Z,102418.28
2023-05-19T06:26:04.236Z,102423.94
2023-05-19T06:28:31.719Z,102419.97
2023-05-19T06:31:01.657Z,102417.94
2023-05-19T06:33:29.355Z,102418.75
2023-05-19T06:36:01.872Z,102420.25
2023-05-19T06:38:28.797Z,102417.72
2023-05-19T06:40:55.743Z,102420.81
2023-05-19T06:43:22.735Z,102425.66
2023-05-19T06:45:49.649Z,102418.09
2023-05-19T06:48:16.694Z,102419.81
2023-05-19T06:50:43.768Z,102411.19
2023-05-19T06:53:10.775Z,102415.69
2023-05-19T06:55:50.469Z,102412.59
2023-05-19T06:58:24.596Z,102411.34
2023-05-19T07:00:51.495Z,102407.81
2023-05-19T07:03:23.450Z,102410.16
2023-05-19T07:05:57.585Z,102414.47
2023-05-19T07:08:27.747Z,102410.84
2023-05-19T07:10:56.844Z,102408.47
2023-05-19T07:13:27.449Z,102403.63
2023-05-19T07:15:57.846Z,102403.91
2023-05-19T07:18:25.579Z,102406.22
2023-05-19T07:20:55.604Z,102406.28
2023-05-19T07:23:24.745Z,102410.44
2023-05-19T07:25:56.407Z,102410.41
2023-05-19T07:28:23.562Z,102418.91
2023-05-19T07:30:50.689Z,102414.22
2023-05-19T07:33:17.632Z,102409.38
2023-05-19T07:35:45.555Z,102409.22
2023-05-19T07:38:12.528Z,102404.81
2023-05-19T07:40:41.774Z,102409.28
2023-05-19T07:43:08.785Z,102413.41
2023-05-19T07:45:35.767Z,102404.19
2023-05-19T07:48:02.899Z,102414.09
2023-05-19T07:50:30.155Z,102408.28
2023-05-19T07:52:59.363Z,102403.16
2023-05-19T07:55:26.407Z,102403.16
2023-05-19T07:57:53.398Z,102406.59
2023-05-19T08:00:20.637Z,102410.75
2023-05-19T08:02:50.240Z,102414.16
2023-05-19T08:05:17.497Z,102409.63
2023-05-19T08:07:44.412Z,102413.22
2023-05-19T08:10:13.856Z,102401.38
2023-05-19T08:12:40.892Z,102403.28
2023-05-19T08:15:08.454Z,102399.78
2023-05-19T08:17:35.414Z,102401.09
2023-05-19T08:20:03.893Z,102400.69
2023-05-19T08:22:30.826Z,102401.91
2023-05-19T08:24:58.068Z,102399.66
2023-05-19T08:27:25.072Z,102405.72
2023-05-19T08:29:51.998Z,102401.63
2023-05-19T08:32:24.434Z,102402.28
2023-05-19T08:34:53.837Z,102394.81
2023-05-19T08:37:23.188Z,102398.69
2023-05-19T08:39:50.160Z,102395.00
2023-05-19T08:42:17.150Z,102383.97
2023-05-19T08:44:44.168Z,102383.47
2023-05-19T08:47:14.300Z,102387.25
2023-05-19T08:49:53.372Z,102379.06
2023-05-19T08:52:52.481Z,102377.00
2023-05-19T08:56:11.945Z,102372.41
2023-05-19T08:58:45.969Z,102373.47
2023-05-19T09:01:19.379Z,102369.69
2023-05-19T09:03:50.169Z,102365.09
2023-05-19T09:06:19.967Z,102363.94
2023-05-19T09:08:47.203Z,102363.22
2023-05-19T09:11:14.535Z,102361.06
2023-05-19T09:13:44.090Z,102363.41
2023-05-19T09:16:14.195Z,102363.25
2023-05-19T09:18:43.782Z,102358.19
2023-05-19T09:21:12.980Z,102350.50
2023-05-19T09:23:47.732Z,102354.56
2023-05-19T09:26:15.799Z,102351.53
2023-05-19T09:28:43.150Z,102356.44
2023-05-19T09:31:11.387Z,102358.09
2023-05-19T09:33:45.526Z,102354.56
2023-05-19T09:36:13.868Z,102346.59
2023-05-19T09:38:41.577Z,102342.78
2023-05-19T09:41:09.797Z,102340.63
2023-05-19T09:43:39.480Z,102339.56
2023-05-19T09:46:16.263Z,102343.97
2023-05-19T09:48:43.890Z,102339.03
2023-05-19T09:51:13.278Z,102334.25
2023-05-19T09:53:42.648Z,102333.19
2023-05-19T09:56:12.538Z,102332.34
2023-05-19T09:58:42.724Z,102331.69
2023-05-19T10:01:12.414Z,102329.13
2023-05-19T10:03:40.664Z,102332.56
2023-05-19T10:06:11.439Z,102326.88
2023-05-19T10:08:42.468Z,102321.34
2023-05-19T10:11:11.471Z,102321.97
2023-05-19T10:13:41.938Z,102314.31
2023-05-19T10:16:10.771Z,102300.69
2023-05-19T10:18:41.066Z,102317.66
2023-05-19T10:21:09.615Z,102307.00
2023-05-19T10:23:37.025Z,102316.13
2023-05-19T10:26:06.760Z,102307.50
2023-05-19T10:28:42.334Z,102310.50
2023-05-19T10:31:17.356Z,102301.09
2023-05-19T10:34:34.832Z,102299.66
2023-05-19T10:37:28.944Z,102303.25
2023-05-19T10:39:57.697Z,102298.13
2023-05-19T10:43:05.094Z,102304.38
2023-05-19T10:45:44.929Z,102300.75
2023-05-19T10:48:17.147Z,102295.13
2023-05-19T10:50:46.501Z,102292.59
2023-05-19T10:53:25.727Z,102290.34
2023-05-19T10:56:04.487Z,102285.91
2023-05-19T10:58:53.149Z,102284.75
2023-05-19T11:01:22.261Z,102280.34
2023-05-19T11:03:57.501Z,102290.06
2023-05-19T11:06:40.520Z,102280.69
2023-05-19T11:09:39.705Z,102278.31
2023-05-19T11:12:11.320Z,102278.91
2023-05-19T11:14:41.488Z,102280.25
2023-05-19T11:17:15.602Z,102283.00
2023-05-19T11:20:00.246Z,102284.31
2023-05-19T11:22:30.697Z,102285.16
2023-05-19T11:25:01.360Z,102283.34
2023-05-19T11:27:38.253Z,102278.09
2023-05-19T11:30:14.882Z,102278.53
2023-05-19T11:32:42.996Z,102279.38
2023-05-19T11:35:11.466Z,102271.72
2023-05-19T11:37:40.542Z,102269.50
2023-05-19T11:40:09.839Z,102269.84
2023-05-19T11:42:37.365Z,102269.22
2023-05-19T11:45:09.009Z,102262.50
2023-05-19T11:47:59.727Z,102255.94
2023-05-19T11:50:26.682Z,102259.81
2023-05-19T11:52:56.284Z,102252.94
2023-05-19T11:55:23.531Z,102261.31
2023-05-19T11:58:05.635Z,102260.88
2023-05-19T12:00:41.057Z,102247.03
2023-05-19T12:03:09.425Z,102238.16
2023-05-19T12:05:49.383Z,102244.97
2023-05-19T12:08:21.627Z,102253.63
2023-05-19T12:10:52.551Z,102249.50
2023-05-19T12:13:21.000Z,102249.16
2023-05-19T12:15:50.840Z,102250.22
2023-05-19T12:18:17.839Z,102251.94
2023-05-19T12:20:44.976Z,102246.84
2023-05-19T12:23:15.086Z,102246.63
2023-05-19T12:25:42.263Z,102244.50
2023-05-19T12:28:09.710Z,102247.25
2023-05-19T12:30:37.152Z,102245.13
2023-05-19T12:33:04.857Z,102238.09
2023-05-19T12:35:36.480Z,102243.63
2023-05-19T12:38:05.565Z,102235.97
2023-05-19T12:40:35.929Z,102235.09
2023-05-19T12:43:06.845Z,102234.72
2023-05-19T12:45:39.656Z,102226.22
2023-05-19T12:48:12.402Z,102229.19
2023-05-19T12:50:42.203Z,102214.78
2023-05-19T12:53:14.095Z,102227.28
2023-05-19T12:55:45.898Z,102235.97
2023-05-19T12:58:19.122Z,102227.88
2023-05-19T13:00:48.514Z,102238.75
2023-05-19T13:03:20.552Z,102238.88
2023-05-19T13:05:50.688Z,102235.44
2023-05-19T13:08:23.989Z,102230.97
2023-05-19T13:10:53.344Z,102234.16
2023-05-19T13:13:24.852Z,102235.31
2023-05-19T13:15:56.515Z,102229.38
2023-05-19T13:18:27.578Z,102235.53
2023-05-19T13:20:54.710Z,102225.81
2023-05-19T13:23:21.682Z,102228.78
2023-05-19T13:25:50.794Z,102228.63
2023-05-19T13:28:20.308Z,102230.13
2023-05-19T13:30:48.290Z,102222.28
2023-05-19T13:33:15.345Z,102216.56
2023-05-19T13:35:42.462Z,102214.56
2023-05-19T13:38:15.392Z,102225.28
2023-05-19T13:40:42.536Z,102213.66
2023-05-19T13:43:09.584Z,102215.16
2023-05-19T13:45:37.230Z,102210.00
2023-05-19T13:48:07.414Z,102214.28
2023-05-19T13:50:36.893Z,102208.34
2023-05-19T13:53:06.165Z,102208.31
2023-05-19T13:55:33.518Z,102207.91
2023-05-19T13:58:03.491Z,102210.03
2023-05-19T14:00:32.031Z,102212.31
2023-05-19T14:03:00.445Z,102207.06
2023-05-19T14:05:28.985Z,102213.19
2023-05-19T14:07:56.102Z,102203.38
2023-05-19T14:10:25.717Z,102196.00
2023-05-19T14:13:18.254Z,102198.56
2023-05-19T14:15:41.374Z,102198.75
2023-05-19T14:18:08.464Z,102188.91
2023-05-19T14:20:37.619Z,102189.94
2023-05-19T14:23:07.308Z,102184.44
2023-05-19T14:25:34.571Z,102186.59
2023-05-19T14:28:06.562Z,102187.00
2023-05-19T14:30:33.648Z,102181.09
2023-05-19T14:33:01.068Z,102179.31
2023-05-19T14:35:28.220Z,102190.63
2023-05-19T14:37:55.364Z,102188.13
2023-05-19T14:40:24.924Z,102192.50
2023-05-19T14:42:54.325Z,102187.53
2023-05-19T14:45:21.589Z,102185.09
2023-05-19T14:47:51.159Z,102183.91
2023-05-19T14:50:18.399Z,102191.66
2023-05-19T14:52:45.430Z,102185.72
2023-05-19T14:55:15.113Z,102185.69
2023-05-19T14:57:42.038Z,102189.25
2023-05-19T15:00:12.224Z,102195.63
2023-05-19T15:02:39.216Z,102188.16
2023-05-19T15:05:06.481Z,102181.06
2023-05-19T15:07:33.438Z,102191.88
2023-05-19T15:10:05.882Z,102179.81
2023-05-19T15:12:32.757Z,102176.16
2023-05-19T15:15:02.378Z,102181.16
2023-05-19T15:17:34.111Z,102176.78
2023-05-19T15:20:01.372Z,102174.81
2023-05-19T15:22:30.996Z,102179.41
2023-05-19T15:25:02.882Z,102176.94
2023-05-19T15:27:29.805Z,102176.13
2023-05-19T15:29:56.697Z,102179.06
2023-05-19T15:32:26.665Z,102174.19
2023-05-19T15:34:53.851Z,102176.94
2023-05-19T15:37:20.772Z,102173.56
2023-05-19T15:39:48.216Z,102173.78
2023-05-19T15:42:17.601Z,102175.47
2023-05-19T15:44:46.154Z,102180.13
2023-05-19T15:47:13.244Z,102172.34
2023-05-19T15:49:40.279Z,102172.13
2023-05-19T15:52:10.522Z,102170.13
2023-05-19T15:54:37.447Z,102169.72
2023-05-19T15:57:04.797Z,102175.06
2023-05-19T15:59:31.843Z,102166.13
2023-05-19T16:02:01.370Z,102162.94
2023-05-19T16:04:28.533Z,102165.88
2023-05-19T16:06:58.144Z,102164.31
2023-05-19T16:09:25.023Z,102166.59
2023-05-19T16:11:51.980Z,102165.03
2023-05-19T16:14:21.389Z,102168.03
2023-05-19T16:16:48.715Z,102165.91
2023-05-19T16:19:18.324Z,102155.81
2023-05-19T16:21:45.442Z,102148.81
2023-05-19T16:24:14.948Z,102148.44
2023-05-19T16:26:42.032Z,102150.44
2023-05-19T16:29:09.276Z,102145.03
2023-05-19T16:31:36.291Z,102142.31
2023-05-19T16:34:03.360Z,102140.81
2023-05-19T16:36:31.942Z,102142.22
2023-05-19T16:38:59.026Z,102147.03
2023-05-19T16:41:26.765Z,102147.03
2023-05-19T16:43:56.407Z,102139.22
2023-05-19T16:46:23.826Z,102146.34
2023-05-19T16:48:56.083Z,102146.31
2023-05-19T16:51:23.347Z,102143.31
2023-05-19T16:53:50.372Z,102139.47
2023-05-19T16:56:17.554Z,102150.00
2023-05-19T16:58:44.875Z,102148.72
2023-05-19T17:01:14.650Z,102144.00
2023-05-19T17:03:44.247Z,102139.66
2023-05-19T17:06:11.264Z,102138.41
2023-05-19T17:08:38.357Z,102146.03
2023-05-19T17:11:07.943Z,102138.00
2023-05-19T17:13:36.400Z,102129.50
2023-05-19T17:16:08.083Z,102130.75
2023-05-19T17:18:35.095Z,102127.78
2023-05-19T17:21:04.825Z,102128.91
2023-05-19T17:23:32.538Z,102133.31
2023-05-19T17:26:04.016Z,102142.53
2023-05-19T17:28:31.013Z,102139.94
2023-05-19T17:31:00.512Z,102138.16
2023-05-19T17:33:27.798Z,102138.31
2023-05-19T17:35:57.481Z,102141.06
2023-05-19T17:38:24.575Z,102143.81
2023-05-19T17:40:53.592Z,102139.28
2023-05-19T17:43:22.997Z,102147.09
2023-05-19T17:45:52.414Z,102147.44
2023-05-19T17:48:19.738Z,102154.91
2023-05-19T17:50:49.747Z,102149.13
2023-05-19T17:53:24.284Z,102148.00
2023-05-19T17:55:59.377Z,102155.19
2023-05-19T17:58:31.640Z,102155.91
2023-05-19T18:01:01.782Z,102154.91
2023-05-19T18:03:29.482Z,102149.03
2023-05-19T18:05:57.070Z,102152.56
2023-05-19T18:08:24.549Z,102155.59
2023-05-19T18:10:52.607Z,102158.91
2023-05-19T18:13:19.893Z,102150.25
2023-05-19T18:15:52.647Z,102158.44
2023-05-19T18:18:19.958Z,102155.50
2023-05-19T18:20:48.536Z,102156.63
2023-05-19T18:23:22.451Z,102150.09
2023-05-19T18:25:52.236Z,102160.88
2023-05-19T18:28:19.415Z,102151.13
2023-05-19T18:30:46.752Z,102148.78
2023-05-19T18:33:18.543Z,102159.47
2023-05-19T18:35:51.104Z,102161.09
2023-05-19T18:38:23.657Z,102166.19
2023-05-19T18:40:51.401Z,102167.16
2023-05-19T18:43:22.451Z,102166.09
2023-05-19T18:45:54.551Z,102173.69
2023-05-19T18:48:22.628Z,102166.38
2023-05-19T18:50:52.841Z,102174.41
2023-05-19T18:53:22.821Z,102176.13
2023-05-19T18:55:52.241Z,102169.66
2023-05-19T18:58:21.859Z,102172.41
2023-05-19T19:00:51.293Z,102171.88
2023-05-19T19:03:18.545Z,102173.44
2023-05-19T19:05:46.030Z,102186.88
2023-05-19T19:08:13.336Z,102183.28
2023-05-19T19:10:40.802Z,102185.19
2023-05-19T19:13:08.472Z,102186.50
2023-05-19T19:15:39.687Z,102186.03
2023-05-19T19:18:08.185Z,102186.03
2023-05-19T19:20:37.770Z,102189.56
2023-05-19T19:23:09.567Z,102195.78
2023-05-19T19:25:39.335Z,102197.13
2023-05-19T19:28:06.272Z,102197.84
2023-05-19T19:30:35.982Z,102206.16
2023-05-19T19:33:06.812Z,102200.63
2023-05-19T19:35:34.825Z,102208.13
2023-05-19T19:38:01.818Z,102208.94
2023-05-19T19:40:32.708Z,102197.22
2023-05-19T19:42:59.837Z,102205.50
2023-05-19T19:45:29.151Z,102206.22
2023-05-19T19:47:56.849Z,102217.72
2023-05-19T19:50:26.209Z,102212.16
2023-05-19T19:52:55.392Z,102216.56
2023-05-19T19:55:22.424Z,102210.72
2023-05-19T19:57:51.595Z,102225.81
2023-05-19T20:00:19.011Z,102225.31
2023-05-19T20:03:03.615Z,102222.66
2023-05-19T20:05:31.114Z,102227.97
2023-05-19T20:08:00.719Z,102235.16
2023-05-19T20:10:27.787Z,102223.81
2023-05-19T20:12:59.166Z,102230.19
2023-05-19T20:15:26.895Z,102242.69
2023-05-19T20:17:54.142Z,102238.63
2023-05-19T20:20:21.832Z,102244.94
2023-05-19T20:22:48.876Z,102244.78
2023-05-19T20:25:15.947Z,102247.53
2023-05-19T20:27:42.994Z,102244.78
2023-05-19T20:30:13.510Z,102247.50
2023-05-19T20:32:40.718Z,102255.91
2023-05-19T20:35:08.737Z,102255.03
2023-05-19T20:37:38.716Z,102259.16
2023-05-19T20:40:09.015Z,102263.44
2023-05-19T20:42:39.034Z,102265.00
2023-05-19T20:45:07.109Z,102271.47
2023-05-19T20:47:36.625Z,102270.13
2023-05-19T20:50:09.187Z,102267.38
2023-05-19T20:52:36.471Z,102259.16
2023-05-19T20:55:05.973Z,102265.31
2023-05-19T20:57:33.157Z,102266.53
2023-05-19T21:00:00.171Z,102265.69
2023-05-19T21:02:27.336Z,102257.75
2023-05-19T21:04:54.814Z,102262.38
2023-05-19T21:07:24.616Z,102258.59
2023-05-19T21:09:52.318Z,102263.91
2023-05-19T21:12:25.396Z,102257.00
2023-05-19T21:14:55.245Z,102259.22
2023-05-19T21:17:24.757Z,102260.09
2023-05-19T21:19:56.389Z,102267.94
2023-05-19T21:22:24.776Z,102267.28
2023-05-19T21:24:54.908Z,102269.88
2023-05-19T21:27:22.171Z,102262.16
2023-05-19T21:29:54.187Z,102274.13
2023-05-19T21:32:21.996Z,102273.25
2023-05-19T21:34:51.152Z,102279.91
2023-05-19T21:37:18.165Z,102282.38
2023-05-19T21:39:47.716Z,102277.81
2023-05-19T21:42:14.900Z,102279.72
2023-05-19T21:44:44.474Z,102283.50
2023-05-19T21:47:14.144Z,102278.13
2023-05-19T21:49:41.279Z,102289.19
2023-05-19T21:52:08.386Z,102284.31
2023-05-19T21:54:37.978Z,102290.88
2023-05-19T21:57:05.572Z,102285.28
2023-05-19T21:59:32.758Z,102281.47
2023-05-19T22:01:59.843Z,102291.94
2023-05-19T22:04:27.133Z,102284.25
2023-05-19T22:06:54.142Z,102291.66
2023-05-19T22:09:21.667Z,102291.78
2023-05-19T22:11:48.630Z,102288.28
2023-05-19T22:14:18.194Z,102289.41
2023-05-19T22:16:47.752Z,102296.91
2023-05-19T22:19:15.062Z,102295.63
2023-05-19T22:21:41.958Z,102294.84
2023-05-19T22:24:09.129Z,102295.53
2023-05-19T22:26:36.368Z,102288.34
2023-05-19T22:29:03.465Z,102292.75
2023-05-19T22:31:32.785Z,102293.38
2023-05-19T22:33:59.824Z,102295.25
2023-05-19T22:36:26.814Z,102299.88
2023-05-19T22:38:53.790Z,102297.88
2023-05-19T22:41:23.834Z,102293.16
2023-05-19T22:43:51.007Z,102295.63
2023-05-19T22:46:18.325Z,102287.72
2023-05-19T22:48:45.349Z,102296.44
2023-05-19T22:51:15.004Z,102293.16
2023-05-19T22:53:42.777Z,102301.81
2023-05-19T22:56:09.756Z,102295.22
2023-05-19T22:58:37.033Z,102289.53
2023-05-19T23:01:03.973Z,102290.47
2023-05-19T23:03:31.258Z,102294.84
2023-05-19T23:05:58.549Z,102291.09
2023-05-19T23:08:25.571Z,102290.78
2023-05-19T23:10:52.638Z,102294.38
2023-05-19T23:13:21.824Z,102299.63
2023-05-19T23:15:49.325Z,102290.59
2023-05-19T23:18:18.483Z,102301.75
2023-05-19T23:20:47.707Z,102303.81
2023-05-19T23:23:15.084Z,102312.00
2023-05-19T23:25:45.175Z,102309.38
2023-05-19T23:28:12.358Z,102306.16
2023-05-19T23:30:39.683Z,102308.19
2023-05-19T23:33:06.589Z,102309.09
2023-05-19T23:35:33.803Z,102308.47
2023-05-19T23:38:01.264Z,102300.31
2023-05-19T23:40:30.929Z,102302.97
2023-05-19T23:42:57.969Z,102299.38
2023-05-19T23:45:27.271Z,102302.13
2023-05-19T23:47:54.248Z,102301.09
2023-05-19T23:50:21.148Z,102304.22
2023-05-19T23:52:51.131Z,102307.66
2023-05-19T23:55:18.424Z,102307.63
2023-05-19T23:57:47.541Z,102300.16
